createdAt,value
2022-12-18T00:00:59.530Z,1015.67
2022-12-18T00:01:59.523Z,1015.67
2022-12-18T00:02:59.507Z,1015.68
2022-12-18T00:03:59.516Z,1015.68
2022-12-18T00:04:59.426Z,1015.69
2022-12-18T00:05:59.429Z,1015.70
2022-12-18T00:06:59.405Z,1015.71
2022-12-18T00:07:59.394Z,1015.73
2022-12-18T00:08:59.384Z,1015.73
2022-12-18T00:09:59.390Z,1015.74
2022-12-18T00:11:00.582Z,1015.77
2022-12-18T00:11:59.402Z,1015.79
2022-12-18T00:13:00.707Z,1015.81
2022-12-18T00:13:59.333Z,1015.82
2022-12-18T00:14:59.326Z,1015.81
2022-12-18T00:15:59.475Z,1015.80
2022-12-18T00:16:59.353Z,1015.78
2022-12-18T00:17:59.289Z,1015.78
2022-12-18T00:18:59.305Z,1015.78
2022-12-18T00:19:59.303Z,1015.78
2022-12-18T00:21:05.782Z,1015.80
2022-12-18T00:21:59.267Z,1015.81
2022-12-18T00:22:59.253Z,1015.81
2022-12-18T00:23:59.260Z,1015.83
2022-12-18T00:24:59.242Z,1015.83
2022-12-18T00:25:59.284Z,1015.84
2022-12-18T00:26:59.210Z,1015.84
2022-12-18T00:27:59.201Z,1015.83
2022-12-18T00:28:59.192Z,1015.82
2022-12-18T00:29:59.187Z,1015.80
2022-12-18T00:30:59.182Z,1015.79
2022-12-18T00:31:59.241Z,1015.78
2022-12-18T00:32:59.155Z,1015.78
2022-12-18T00:33:59.144Z,1015.75
2022-12-18T00:34:59.141Z,1015.73
2022-12-18T00:35:59.120Z,1015.70
2022-12-18T00:36:59.133Z,1015.67
2022-12-18T00:37:59.114Z,1015.64
2022-12-18T00:38:59.149Z,1015.63
2022-12-18T00:39:59.081Z,1015.64
2022-12-18T00:40:59.080Z,1015.65
2022-12-18T00:41:59.138Z,1015.67
2022-12-18T00:42:59.064Z,1015.67
2022-12-18T00:43:59.054Z,1015.66
2022-12-18T00:44:59.036Z,1015.65
2022-12-18T00:45:59.090Z,1015.66
2022-12-18T00:46:59.041Z,1015.69
2022-12-18T00:47:59.031Z,1015.73
2022-12-18T00:48:59.015Z,1015.77
2022-12-18T00:49:58.989Z,1015.79
2022-12-18T00:50:58.995Z,1015.82
2022-12-18T00:51:59.002Z,1015.84
2022-12-18T00:52:58.976Z,1015.83
2022-12-18T00:53:58.952Z,1015.82
2022-12-18T00:55:04.503Z,1015.83
2022-12-18T00:55:58.943Z,1015.82
2022-12-18T00:56:58.955Z,1015.80
2022-12-18T00:57:58.940Z,1015.79
2022-12-18T00:58:58.914Z,1015.76
2022-12-18T00:59:58.902Z,1015.73
2022-12-18T01:00:58.972Z,1015.72
2022-12-18T01:01:59.030Z,1015.69
2022-12-18T01:02:58.911Z,1015.67
2022-12-18T01:03:58.872Z,1015.66
2022-12-18T01:04:58.849Z,1015.66
2022-12-18T01:05:58.848Z,1015.66
2022-12-18T01:06:58.871Z,1015.66
2022-12-18T01:07:58.817Z,1015.66
2022-12-18T01:08:58.821Z,1015.64
2022-12-18T01:09:58.804Z,1015.64
2022-12-18T01:10:58.796Z,1015.64
2022-12-18T01:11:58.807Z,1015.64
2022-12-18T01:12:58.775Z,1015.65
2022-12-18T01:13:58.772Z,1015.66
2022-12-18T01:14:58.762Z,1015.66
2022-12-18T01:15:58.812Z,1015.67
2022-12-18T01:16:58.783Z,1015.68
2022-12-18T01:17:58.718Z,1015.68
2022-12-18T01:18:58.717Z,1015.68
2022-12-18T01:19:58.701Z,1015.70
2022-12-18T01:20:58.703Z,1015.70
2022-12-18T01:21:58.716Z,1015.71
2022-12-18T01:22:58.683Z,1015.72
2022-12-18T01:23:58.666Z,1015.72
2022-12-18T01:24:58.657Z,1015.73
2022-12-18T01:25:58.649Z,1015.73
2022-12-18T01:26:58.662Z,1015.74
2022-12-18T01:27:58.622Z,1015.74
2022-12-18T01:28:58.621Z,1015.74
2022-12-18T01:29:58.607Z,1015.74
2022-12-18T01:30:58.607Z,1015.72
2022-12-18T01:31:58.677Z,1015.72
2022-12-18T01:32:58.575Z,1015.70
2022-12-18T01:33:58.572Z,1015.67
2022-12-18T01:34:58.568Z,1015.65
2022-12-18T01:35:58.555Z,1015.64
2022-12-18T01:36:58.562Z,1015.63
2022-12-18T01:37:58.543Z,1015.61
2022-12-18T01:38:58.519Z,1015.59
2022-12-18T01:39:58.516Z,1015.56
2022-12-18T01:40:58.497Z,1015.54
2022-12-18T01:41:58.521Z,1015.53
2022-12-18T01:42:58.475Z,1015.53
2022-12-18T01:43:58.483Z,1015.54
2022-12-18T01:44:58.470Z,1015.57
2022-12-18T01:45:58.509Z,1015.61
2022-12-18T01:46:58.462Z,1015.64
2022-12-18T01:47:58.430Z,1015.68
2022-12-18T01:48:58.438Z,1015.71
2022-12-18T01:49:58.424Z,1015.76
2022-12-18T01:50:58.405Z,1015.79
2022-12-18T01:51:58.455Z,1015.81
2022-12-18T01:52:58.382Z,1015.83
2022-12-18T01:53:58.397Z,1015.82
2022-12-18T01:54:58.379Z,1015.82
2022-12-18T01:55:58.354Z,1015.80
2022-12-18T01:56:58.367Z,1015.81
2022-12-18T01:57:58.338Z,1015.80
2022-12-18T01:58:58.325Z,1015.80
2022-12-18T01:59:58.320Z,1015.79
2022-12-18T02:00:58.359Z,1015.77
2022-12-18T02:01:58.507Z,1015.74
2022-12-18T02:02:58.407Z,1015.72
2022-12-18T02:03:58.293Z,1015.70
2022-12-18T02:04:58.263Z,1015.71
2022-12-18T02:05:58.261Z,1015.72
2022-12-18T02:06:58.298Z,1015.71
2022-12-18T02:07:58.237Z,1015.69
2022-12-18T02:08:58.229Z,1015.66
2022-12-18T02:09:58.229Z,1015.61
2022-12-18T02:10:58.204Z,1015.57
2022-12-18T02:11:58.238Z,1015.54
2022-12-18T02:12:58.198Z,1015.53
2022-12-18T02:13:58.188Z,1015.53
2022-12-18T02:14:58.169Z,1015.54
2022-12-18T02:15:58.172Z,1015.54
2022-12-18T02:16:58.230Z,1015.53
2022-12-18T02:17:58.156Z,1015.55
2022-12-18T02:18:58.137Z,1015.57
2022-12-18T02:19:58.132Z,1015.58
2022-12-18T02:20:58.124Z,1015.59
2022-12-18T02:21:58.138Z,1015.59
2022-12-18T02:22:58.112Z,1015.60
2022-12-18T02:23:58.095Z,1015.59
2022-12-18T02:24:58.076Z,1015.62
2022-12-18T02:25:58.073Z,1015.61
2022-12-18T02:26:58.080Z,1015.62
2022-12-18T02:27:58.052Z,1015.63
2022-12-18T02:28:58.045Z,1015.63
2022-12-18T02:29:59.030Z,1015.64
2022-12-18T02:30:58.052Z,1015.65
2022-12-18T02:31:58.039Z,1015.66
2022-12-18T02:32:57.999Z,1015.65
2022-12-18T02:33:58.001Z,1015.67
2022-12-18T02:34:57.997Z,1015.69
2022-12-18T02:35:57.987Z,1015.68
2022-12-18T02:36:58.004Z,1015.66
2022-12-18T02:37:57.970Z,1015.64
2022-12-18T02:38:57.942Z,1015.63
2022-12-18T02:39:57.940Z,1015.62
2022-12-18T02:40:57.932Z,1015.63
2022-12-18T02:41:57.944Z,1015.64
2022-12-18T02:42:57.912Z,1015.63
2022-12-18T02:43:57.899Z,1015.62
2022-12-18T02:44:57.882Z,1015.60
2022-12-18T02:45:57.945Z,1015.59
2022-12-18T02:46:57.902Z,1015.59
2022-12-18T02:47:57.867Z,1015.58
2022-12-18T02:48:57.859Z,1015.58
2022-12-18T02:49:57.844Z,1015.56
2022-12-18T02:50:57.828Z,1015.57
2022-12-18T02:51:57.847Z,1015.57
2022-12-18T02:52:57.823Z,1015.56
2022-12-18T02:53:57.806Z,1015.53
2022-12-18T02:54:57.784Z,1015.52
2022-12-18T02:55:57.780Z,1015.49
2022-12-18T02:56:57.790Z,1015.48
2022-12-18T02:57:57.707Z,27672.53
2022-12-18T02:58:57.698Z,27672.53
2022-12-18T02:59:57.692Z,27672.53
2022-12-18T03:00:57.703Z,27672.53
2022-12-18T03:01:57.884Z,27672.53
2022-12-18T03:02:57.804Z,27672.53
2022-12-18T03:03:57.642Z,27672.53
2022-12-18T03:04:57.635Z,27672.53
2022-12-18T03:05:57.646Z,27672.53
2022-12-18T03:06:57.621Z,27672.53
2022-12-18T03:07:57.640Z,27672.53
2022-12-18T03:08:57.599Z,27672.53
2022-12-18T03:09:57.584Z,27672.53
2022-12-18T03:10:57.574Z,27672.53
2022-12-18T03:11:57.599Z,27672.53
2022-12-18T03:12:57.575Z,27672.53
2022-12-18T03:13:57.550Z,27672.53
2022-12-18T03:14:57.616Z,27672.53
2022-12-18T03:15:57.539Z,27672.53
2022-12-18T03:16:57.548Z,27672.53
2022-12-18T03:17:57.535Z,27672.53
2022-12-18T03:18:57.502Z,27672.53
2022-12-18T03:19:57.498Z,27672.53
2022-12-18T03:20:57.502Z,27672.53
2022-12-18T03:21:57.503Z,27672.53
2022-12-18T03:22:57.504Z,27672.53
2022-12-18T03:23:57.468Z,27672.53
2022-12-18T03:24:57.449Z,27672.53
2022-12-18T03:25:57.439Z,27672.53
2022-12-18T03:26:57.447Z,27672.53
2022-12-18T03:27:57.439Z,27672.53
2022-12-18T03:28:57.409Z,27672.53
2022-12-18T03:29:57.401Z,27672.53
2022-12-18T03:30:57.457Z,27672.53
2022-12-18T03:31:57.384Z,27672.53
2022-12-18T03:33:00.244Z,27672.53
2022-12-18T03:33:57.373Z,27672.53
2022-12-18T03:34:57.346Z,27672.53
2022-12-18T03:35:57.351Z,27672.53
2022-12-18T03:36:57.334Z,27672.53
2022-12-18T03:37:57.356Z,27672.53
2022-12-18T03:38:57.319Z,27672.53
2022-12-18T03:39:57.325Z,27672.53
2022-12-18T03:40:57.290Z,27672.53
2022-12-18T03:41:57.283Z,27672.53
2022-12-18T03:42:57.296Z,27672.53
2022-12-18T03:43:57.281Z,27672.53
2022-12-18T03:44:57.256Z,27672.53
2022-12-18T03:45:57.280Z,27672.53
2022-12-18T03:46:57.233Z,27672.53
2022-12-18T03:47:57.257Z,27672.53
2022-12-18T03:48:57.233Z,27672.53
2022-12-18T03:49:57.207Z,27672.53
2022-12-18T03:50:57.213Z,27672.53
2022-12-18T03:51:57.204Z,27672.53
2022-12-18T03:52:57.194Z,27672.53
2022-12-18T03:53:57.174Z,27672.53
2022-12-18T03:54:57.155Z,27672.53
2022-12-18T03:55:57.159Z,27672.53
2022-12-18T03:56:57.153Z,27672.53
2022-12-18T03:57:57.155Z,27672.53
2022-12-18T03:58:57.119Z,27672.53
2022-12-18T03:59:57.120Z,27672.53
2022-12-18T04:00:57.110Z,27672.53
2022-12-18T04:01:57.207Z,27672.53
2022-12-18T04:02:57.117Z,27672.53
2022-12-18T04:03:57.125Z,27672.53
2022-12-18T04:04:57.122Z,27672.53
2022-12-18T04:05:57.053Z,27672.53
2022-12-18T04:06:57.055Z,27672.53
2022-12-18T04:07:57.037Z,27672.53
2022-12-18T04:08:57.054Z,27672.53
2022-12-18T04:09:57.027Z,27672.53
2022-12-18T04:10:57.015Z,27672.53
2022-12-18T04:11:57.011Z,27672.53
2022-12-18T04:12:56.987Z,27672.53
2022-12-18T04:13:57.013Z,27672.53
2022-12-18T04:14:56.971Z,27672.53
2022-12-18T04:15:57.038Z,27672.53
2022-12-18T04:16:56.945Z,27672.53
2022-12-18T04:17:56.945Z,27672.53
2022-12-18T04:18:56.965Z,27672.53
2022-12-18T04:19:56.921Z,27672.53
2022-12-18T04:20:56.909Z,27672.53
2022-12-18T04:21:56.916Z,27672.53
2022-12-18T04:22:56.892Z,27672.53
2022-12-18T04:23:56.921Z,27672.53
2022-12-18T04:24:56.867Z,27672.53
2022-12-18T04:25:56.875Z,27672.53
2022-12-18T04:26:56.852Z,27672.53
2022-12-18T04:27:56.848Z,27672.53
2022-12-18T04:28:56.851Z,27672.53
2022-12-18T04:29:56.831Z,27672.53
2022-12-18T04:30:56.824Z,27672.53
2022-12-18T04:31:56.823Z,27672.53
2022-12-18T04:32:56.805Z,27672.53
2022-12-18T04:33:56.812Z,27672.53
2022-12-18T04:34:56.780Z,27672.53
2022-12-18T04:35:56.764Z,27672.53
2022-12-18T04:36:56.753Z,27672.53
2022-12-18T04:37:56.754Z,27672.53
2022-12-18T04:38:56.760Z,27672.53
2022-12-18T04:39:56.728Z,27672.53
2022-12-18T04:41:03.213Z,27672.53
2022-12-18T04:42:03.205Z,27672.53
2022-12-18T04:43:03.210Z,27672.53
2022-12-18T04:43:56.717Z,27672.53
2022-12-18T04:44:56.673Z,27672.53
2022-12-18T04:45:56.693Z,27672.53
2022-12-18T04:46:56.668Z,27672.53
2022-12-18T04:47:56.652Z,27672.53
2022-12-18T04:48:56.664Z,27672.53
2022-12-18T04:49:56.651Z,27672.53
2022-12-18T04:50:56.617Z,27672.53
2022-12-18T04:51:56.655Z,27672.53
2022-12-18T04:52:56.597Z,27672.53
2022-12-18T04:53:56.620Z,27672.53
2022-12-18T04:54:56.580Z,27672.53
2022-12-18T04:55:56.574Z,27672.53
2022-12-18T04:56:56.554Z,27672.53
2022-12-18T04:57:56.563Z,27672.53
2022-12-18T04:58:56.563Z,27672.53
2022-12-18T04:59:56.544Z,27672.53
2022-12-18T05:00:56.521Z,27672.53
2022-12-18T05:01:56.638Z,27672.53
2022-12-18T05:02:56.667Z,27672.53
2022-12-18T05:03:56.568Z,27672.53
2022-12-18T05:04:56.495Z,27672.53
2022-12-18T05:05:56.477Z,27672.53
2022-12-18T05:06:56.466Z,27672.53
2022-12-18T05:07:56.468Z,27672.53
2022-12-18T05:08:56.475Z,27672.53
2022-12-18T05:09:56.448Z,27672.53
2022-12-18T05:10:56.437Z,27672.53
2022-12-18T05:11:56.441Z,27672.53
2022-12-18T05:12:56.408Z,27672.53
2022-12-18T05:13:56.424Z,27672.53
2022-12-18T05:14:56.401Z,27672.53
2022-12-18T05:15:56.455Z,27672.53
2022-12-18T05:17:00.679Z,27672.53
2022-12-18T05:17:56.389Z,27672.53
2022-12-18T05:18:56.389Z,27672.53
2022-12-18T05:19:56.340Z,27672.53
2022-12-18T05:20:56.342Z,27672.53
2022-12-18T05:21:56.329Z,27672.53
2022-12-18T05:22:56.345Z,27672.53
2022-12-18T05:23:56.346Z,27672.53
2022-12-18T05:24:56.312Z,27672.53
2022-12-18T05:25:56.285Z,27672.53
2022-12-18T05:26:56.284Z,27672.53
2022-12-18T05:27:56.277Z,27672.53
2022-12-18T05:28:56.277Z,27672.53
2022-12-18T05:29:56.301Z,27672.53
2022-12-18T05:30:56.316Z,27672.53
2022-12-18T05:31:56.291Z,27672.53
2022-12-18T05:32:56.228Z,27672.53
2022-12-18T05:33:56.236Z,27672.53
2022-12-18T05:34:56.213Z,27672.53
2022-12-18T05:35:56.190Z,27672.53
2022-12-18T05:36:56.198Z,27672.53
2022-12-18T05:37:56.169Z,27672.53
2022-12-18T05:38:56.195Z,27672.53
2022-12-18T05:39:56.144Z,27672.53
2022-12-18T05:40:56.148Z,27672.53
2022-12-18T05:41:56.144Z,27672.53
2022-12-18T05:42:56.136Z,27672.53
2022-12-18T05:43:56.172Z,27672.53
2022-12-18T05:44:56.121Z,27672.53
2022-12-18T05:45:56.130Z,27672.53
2022-12-18T05:46:56.153Z,27672.53
2022-12-18T05:47:56.080Z,27672.53
2022-12-18T05:48:56.065Z,27672.53
2022-12-18T05:49:56.081Z,27672.53
2022-12-18T05:50:56.051Z,27672.53
2022-12-18T05:51:56.027Z,27672.53
2022-12-18T05:52:56.028Z,27672.53
2022-12-18T05:53:56.028Z,27672.53
2022-12-18T05:54:56.035Z,27672.53
2022-12-18T05:55:55.999Z,27672.53
2022-12-18T05:56:56.032Z,27672.53
2022-12-18T05:57:55.997Z,27672.53
2022-12-18T05:58:55.990Z,27672.53
2022-12-18T05:59:55.972Z,27672.53
2022-12-18T06:00:56.007Z,27672.53
2022-12-18T06:01:56.094Z,27672.53
2022-12-18T06:02:56.102Z,27672.53
2022-12-18T06:03:56.147Z,27672.53
2022-12-18T06:04:55.953Z,27672.53
2022-12-18T06:05:55.908Z,27672.53
2022-12-18T06:06:55.900Z,27672.53
2022-12-18T06:07:55.910Z,27672.53
2022-12-18T06:08:55.881Z,27672.53
2022-12-18T06:09:55.893Z,27672.53
2022-12-18T06:10:55.852Z,27672.53
2022-12-18T06:11:55.859Z,27672.53
2022-12-18T06:12:55.842Z,27672.53
2022-12-18T06:13:58.633Z,27672.53
2022-12-18T06:14:55.843Z,27672.53
2022-12-18T06:15:55.832Z,27672.53
2022-12-18T06:16:55.799Z,27672.53
2022-12-18T06:17:55.788Z,27672.53
2022-12-18T06:18:55.793Z,27672.53
2022-12-18T06:19:55.781Z,27672.53
2022-12-18T06:20:55.765Z,27672.53
2022-12-18T06:21:55.748Z,27672.53
2022-12-18T06:22:55.752Z,27672.53
2022-12-18T06:23:55.736Z,27672.53
2022-12-18T06:24:55.744Z,27672.53
2022-12-18T06:25:55.712Z,27672.53
2022-12-18T06:26:55.697Z,27672.53
2022-12-18T06:27:55.704Z,27672.53
2022-12-18T06:28:55.720Z,27672.53
2022-12-18T06:29:55.687Z,27672.53
2022-12-18T06:30:55.670Z,27672.53
2022-12-18T06:31:55.755Z,27672.53
2022-12-18T06:32:56.895Z,27672.53
2022-12-18T06:33:55.653Z,27672.53
2022-12-18T06:34:55.651Z,27672.53
2022-12-18T06:36:00.885Z,27672.53
2022-12-18T06:36:55.619Z,27672.53
2022-12-18T06:37:55.593Z,27672.53
2022-12-18T06:38:55.590Z,27672.53
2022-12-18T06:39:55.608Z,27672.53
2022-12-18T06:40:55.572Z,27672.53
2022-12-18T06:41:55.548Z,27672.53
2022-12-18T06:42:55.562Z,27672.53
2022-12-18T06:43:59.576Z,27672.53
2022-12-18T06:44:55.560Z,27672.53
2022-12-18T06:45:55.586Z,27672.53
2022-12-18T06:46:55.510Z,27672.53
2022-12-18T06:47:55.503Z,27672.53
2022-12-18T06:48:55.504Z,27672.53
2022-12-18T06:49:55.539Z,27672.53
2022-12-18T06:51:02.021Z,27672.53
2022-12-18T06:51:55.485Z,27672.53
2022-12-18T06:53:01.972Z,27672.53
2022-12-18T06:53:55.449Z,27672.53
2022-12-18T06:54:55.506Z,27672.53
2022-12-18T06:55:55.418Z,27672.53
2022-12-18T06:56:55.409Z,27672.53
2022-12-18T06:57:55.396Z,27672.53
2022-12-18T06:58:55.413Z,27672.53
2022-12-18T06:59:55.441Z,27672.53
2022-12-18T07:00:55.426Z,27672.53
2022-12-18T07:01:55.539Z,27672.53
2022-12-18T07:02:55.433Z,27672.53
2022-12-18T07:03:55.349Z,27672.53
2022-12-18T07:04:55.375Z,27672.53
2022-12-18T07:05:55.341Z,27672.53
2022-12-18T07:06:55.360Z,27672.53
2022-12-18T07:07:55.308Z,27672.53
2022-12-18T07:08:55.316Z,27672.53
2022-12-18T07:09:55.362Z,27672.53
2022-12-18T07:10:56.419Z,27672.53
2022-12-18T07:11:55.331Z,27672.53
2022-12-18T07:12:55.325Z,27672.53
2022-12-18T07:13:55.256Z,27672.53
2022-12-18T07:14:55.332Z,27672.53
2022-12-18T07:15:55.448Z,27672.53
2022-12-18T07:16:55.303Z,27672.53
2022-12-18T07:17:55.264Z,27672.53
2022-12-18T07:18:55.274Z,27672.53
2022-12-18T07:19:55.257Z,27672.53
2022-12-18T07:20:55.196Z,27672.53
2022-12-18T07:21:55.170Z,27672.53
2022-12-18T07:22:56.470Z,27672.53
2022-12-18T07:23:55.146Z,27672.53
2022-12-18T07:24:55.146Z,27672.53
2022-12-18T07:25:55.176Z,27672.53
2022-12-18T07:26:55.128Z,27672.53
2022-12-18T07:27:55.106Z,27672.53
2022-12-18T07:28:55.138Z,27672.53
2022-12-18T07:29:55.078Z,27672.53
2022-12-18T07:30:55.108Z,27672.53
2022-12-18T07:31:55.083Z,27672.53
2022-12-18T07:32:55.099Z,27672.53
2022-12-18T07:33:55.043Z,27672.53
2022-12-18T07:34:55.039Z,27672.53
2022-12-18T07:35:55.047Z,27672.53
2022-12-18T07:36:55.044Z,27672.53
2022-12-18T07:37:55.009Z,27672.53
2022-12-18T07:38:55.009Z,27672.53
2022-12-18T07:39:54.988Z,27672.53
2022-12-18T07:40:55.025Z,27672.53
2022-12-18T07:41:54.962Z,27672.53
2022-12-18T07:42:54.963Z,27672.53
2022-12-18T07:43:54.958Z,27672.53
2022-12-18T07:44:54.958Z,27672.53
2022-12-18T07:45:55.019Z,27672.53
2022-12-18T07:46:54.920Z,27672.53
2022-12-18T07:47:54.903Z,27672.53
2022-12-18T07:48:54.891Z,27672.53
2022-12-18T07:49:54.887Z,27672.53
2022-12-18T07:50:54.876Z,27672.53
2022-12-18T07:51:54.889Z,27672.53
2022-12-18T07:52:54.860Z,27672.53
2022-12-18T07:53:54.853Z,27672.53
2022-12-18T07:54:54.840Z,27672.53
2022-12-18T07:56:25.455Z,27672.53
2022-12-18T07:56:54.864Z,27672.53
2022-12-18T07:57:59.386Z,27672.53
2022-12-18T07:58:54.837Z,27672.53
2022-12-18T07:59:54.803Z,27672.53
2022-12-18T08:00:54.837Z,27672.53
2022-12-18T08:01:54.970Z,27672.53
2022-12-18T08:02:54.868Z,27672.53
2022-12-18T08:03:54.757Z,27672.53
2022-12-18T08:04:54.743Z,27672.53
2022-12-18T08:05:54.731Z,27672.53
2022-12-18T08:06:54.742Z,27672.53
2022-12-18T08:07:54.697Z,27672.53
2022-12-18T08:08:54.820Z,27672.53
2022-12-18T08:09:54.735Z,27672.53
2022-12-18T08:10:54.682Z,27672.53
2022-12-18T08:11:54.689Z,27672.53
2022-12-18T08:12:54.668Z,27672.53
2022-12-18T08:13:54.698Z,27672.53
2022-12-18T08:14:54.678Z,27672.53
2022-12-18T08:15:54.639Z,27672.53
2022-12-18T08:16:54.702Z,27672.53
2022-12-18T08:17:54.602Z,27672.53
2022-12-18T08:18:54.654Z,27672.53
2022-12-18T08:19:54.622Z,27672.53
2022-12-18T08:20:54.582Z,27672.53
2022-12-18T08:21:54.619Z,27672.53
2022-12-18T08:22:54.558Z,27672.53
2022-12-18T08:23:54.545Z,27672.53
2022-12-18T08:24:54.537Z,27672.53
2022-12-18T08:25:54.535Z,27672.53
2022-12-18T08:27:20.934Z,27672.53
2022-12-18T08:27:54.521Z,27672.53
2022-12-18T08:28:54.504Z,27672.53
2022-12-18T08:29:54.497Z,27672.53
2022-12-18T08:30:54.501Z,27672.53
2022-12-18T08:31:54.574Z,27672.53
2022-12-18T08:32:54.476Z,27672.53
2022-12-18T08:33:54.489Z,27672.53
2022-12-18T08:34:54.444Z,27672.53
2022-12-18T08:35:54.494Z,27672.53
2022-12-18T08:36:54.441Z,27672.53
2022-12-18T08:37:54.417Z,27672.53
2022-12-18T08:38:54.436Z,27672.53
2022-12-18T08:39:54.437Z,27672.53
2022-12-18T08:40:54.387Z,27672.53
2022-12-18T08:41:54.412Z,27672.53
2022-12-18T08:42:54.359Z,27672.53
2022-12-18T08:43:54.344Z,27672.53
2022-12-18T08:44:54.392Z,27672.53
2022-12-18T08:45:54.418Z,27672.53
2022-12-18T08:46:54.351Z,27672.53
2022-12-18T08:47:54.324Z,27672.53
2022-12-18T08:48:54.312Z,27672.53
2022-12-18T08:49:54.298Z,27672.53
2022-12-18T08:50:54.308Z,27672.53
2022-12-18T08:51:54.311Z,27672.53
2022-12-18T08:52:54.266Z,27672.53
2022-12-18T08:53:54.256Z,27672.53
2022-12-18T08:54:54.248Z,27672.53
2022-12-18T08:55:54.254Z,27672.53
2022-12-18T08:56:54.263Z,27672.53
2022-12-18T08:57:54.247Z,27672.53
2022-12-18T08:58:54.209Z,27672.53
2022-12-18T08:59:54.190Z,27672.53
2022-12-18T09:00:54.247Z,27672.53
2022-12-18T09:01:54.326Z,27672.53
2022-12-18T09:02:54.291Z,27672.53
2022-12-18T09:03:54.165Z,27672.53
2022-12-18T09:05:00.650Z,27672.53
2022-12-18T09:05:54.138Z,27672.53
2022-12-18T09:06:54.147Z,27672.53
2022-12-18T09:07:54.120Z,27672.53
2022-12-18T09:08:54.101Z,27672.53
2022-12-18T09:09:54.115Z,27672.53
2022-12-18T09:10:54.087Z,27672.53
2022-12-18T09:11:54.127Z,27672.53
2022-12-18T09:12:54.151Z,27672.53
2022-12-18T09:13:54.048Z,27672.53
2022-12-18T09:14:54.054Z,27672.53
2022-12-18T09:15:54.050Z,27672.53
2022-12-18T09:16:54.097Z,27672.53
2022-12-18T09:17:54.032Z,27672.53
2022-12-18T09:18:54.023Z,27672.53
2022-12-18T09:19:54.803Z,27672.53
2022-12-18T09:20:54.149Z,27672.53
2022-12-18T09:21:54.002Z,27672.53
2022-12-18T09:22:54.026Z,27672.53
2022-12-18T09:23:53.962Z,27672.53
2022-12-18T09:24:53.945Z,27672.53
2022-12-18T09:25:53.935Z,27672.53
2022-12-18T09:26:57.650Z,27672.53
2022-12-18T09:27:53.941Z,27672.53
2022-12-18T09:28:53.925Z,27672.53
2022-12-18T09:29:53.895Z,27672.53
2022-12-18T09:30:53.916Z,27672.53
2022-12-18T09:31:53.875Z,27672.53
2022-12-18T09:32:53.930Z,27672.53
2022-12-18T09:33:53.911Z,27672.53
2022-12-18T09:34:53.899Z,27672.53
2022-12-18T09:35:53.846Z,27672.53
2022-12-18T09:36:53.839Z,27672.53
2022-12-18T09:37:53.869Z,27672.53
2022-12-18T09:38:53.874Z,27672.53
2022-12-18T09:39:53.799Z,27672.53
2022-12-18T09:40:53.795Z,27672.53
2022-12-18T09:41:53.795Z,27672.53
2022-12-18T09:42:53.785Z,27672.53
2022-12-18T09:43:53.779Z,27672.53
2022-12-18T09:44:53.798Z,27672.53
2022-12-18T09:45:53.859Z,27672.53
2022-12-18T09:46:53.749Z,27672.53
2022-12-18T09:47:53.747Z,27672.53
2022-12-18T09:48:53.717Z,27672.53
2022-12-18T09:49:53.694Z,27672.53
2022-12-18T09:50:53.699Z,27672.53
2022-12-18T09:51:53.698Z,27672.53
2022-12-18T09:52:53.690Z,27672.53
2022-12-18T09:53:53.661Z,27672.53
2022-12-18T09:54:53.649Z,27672.53
2022-12-18T09:55:53.638Z,27672.53
2022-12-18T09:56:53.639Z,27672.53
2022-12-18T09:57:53.649Z,27672.53
2022-12-18T09:58:53.704Z,27672.53
2022-12-18T09:59:53.643Z,27672.53
2022-12-18T10:00:53.646Z,27672.53
2022-12-18T10:01:53.708Z,27672.53
2022-12-18T10:02:53.767Z,27672.53
2022-12-18T10:03:53.583Z,27672.53
2022-12-18T10:04:53.555Z,27672.53
2022-12-18T10:05:53.548Z,27672.53
2022-12-18T10:06:53.805Z,27672.53
2022-12-18T10:07:53.548Z,27672.53
2022-12-18T10:08:53.512Z,27672.53
2022-12-18T10:09:53.503Z,27672.53
2022-12-18T10:10:53.496Z,27672.53
2022-12-18T10:11:53.475Z,27672.53
2022-12-18T10:12:53.483Z,27672.53
2022-12-18T10:13:53.472Z,27672.53
2022-12-18T10:14:53.450Z,27672.53
2022-12-18T10:15:53.469Z,27672.53
2022-12-18T10:16:53.449Z,27672.53
2022-12-18T10:17:53.455Z,27672.53
2022-12-18T10:18:53.425Z,27672.53
2022-12-18T10:19:53.429Z,27672.53
2022-12-18T10:20:53.414Z,27672.53
2022-12-18T10:21:53.392Z,27672.53
2022-12-18T10:22:53.404Z,27672.53
2022-12-18T10:23:53.370Z,27672.53
2022-12-18T10:24:53.364Z,27672.53
2022-12-18T10:25:53.347Z,27672.53
2022-12-18T10:26:53.340Z,27672.53
2022-12-18T10:27:53.336Z,27672.53
2022-12-18T10:28:53.358Z,27672.53
2022-12-18T10:29:53.305Z,27672.53
2022-12-18T10:30:53.352Z,27672.53
2022-12-18T10:31:53.279Z,27672.53
2022-12-18T10:32:53.269Z,27672.53
2022-12-18T10:33:53.289Z,27672.53
2022-12-18T10:34:59.804Z,27672.53
2022-12-18T10:35:53.277Z,27672.53
2022-12-18T10:36:53.229Z,27672.53
2022-12-18T10:37:53.215Z,27672.53
2022-12-18T10:38:53.234Z,27672.53
2022-12-18T10:39:53.254Z,27672.53
2022-12-18T10:40:53.188Z,27672.53
2022-12-18T10:41:53.188Z,27672.53
2022-12-18T10:42:53.176Z,27672.53
2022-12-18T10:43:53.216Z,27672.53
2022-12-18T10:44:53.146Z,27672.53
2022-12-18T10:45:53.160Z,27672.53
2022-12-18T10:46:53.218Z,27672.53
2022-12-18T10:47:53.120Z,27672.53
2022-12-18T10:48:53.142Z,27672.53
2022-12-18T10:49:53.106Z,27672.53
2022-12-18T10:51:10.849Z,27672.53
2022-12-18T10:51:59.657Z,27672.53
2022-12-18T10:52:53.076Z,27672.53
2022-12-18T10:53:53.090Z,27672.53
2022-12-18T10:54:53.042Z,27672.53
2022-12-18T10:55:53.033Z,27672.53
2022-12-18T10:56:53.041Z,27672.53
2022-12-18T10:57:53.014Z,27672.53
2022-12-18T10:58:53.019Z,27672.53
2022-12-18T10:59:52.993Z,27672.53
2022-12-18T11:00:53.040Z,27672.53
2022-12-18T11:01:53.113Z,27672.53
2022-12-18T11:02:53.262Z,27672.53
2022-12-18T11:03:57.571Z,27672.53
2022-12-18T11:04:52.964Z,27672.53
2022-12-18T11:05:52.955Z,27672.53
2022-12-18T11:06:52.923Z,27672.53
2022-12-18T11:07:52.928Z,27672.53
2022-12-18T11:08:52.919Z,27672.53
2022-12-18T11:09:52.902Z,27672.53
2022-12-18T11:10:52.883Z,27672.53
2022-12-18T11:11:52.889Z,27672.53
2022-12-18T11:12:52.873Z,27672.53
2022-12-18T11:13:52.900Z,27672.53
2022-12-18T11:14:52.854Z,27672.53
2022-12-18T11:15:52.996Z,27672.53
2022-12-18T11:17:52.835Z,27672.53
2022-12-18T11:18:52.838Z,27672.53
2022-12-18T11:19:52.813Z,27672.53
2022-12-18T11:20:58.170Z,27672.53
2022-12-18T11:21:52.858Z,27672.53
2022-12-18T11:22:52.764Z,27672.53
2022-12-18T11:23:52.798Z,27672.53
2022-12-18T11:25:22.555Z,27672.53
2022-12-18T11:25:52.738Z,27672.53
2022-12-18T11:26:59.359Z,27672.53
2022-12-18T11:27:52.747Z,27672.53
2022-12-18T11:28:52.725Z,27672.53
2022-12-18T11:29:52.722Z,1013.37
2022-12-18T11:30:52.790Z,1013.34
2022-12-18T11:31:52.758Z,1013.35
2022-12-18T11:32:52.664Z,1013.31
2022-12-18T11:34:19.778Z,1013.30
2022-12-18T11:34:57.389Z,1013.30
2022-12-18T11:35:52.659Z,1013.30
2022-12-18T11:36:52.656Z,1013.29
2022-12-18T11:37:52.620Z,1013.26
2022-12-18T11:38:52.615Z,1013.24
2022-12-18T11:39:52.633Z,1013.27
2022-12-18T11:40:52.603Z,1013.30
2022-12-18T11:41:52.608Z,1013.31
2022-12-18T11:42:52.583Z,1013.35
2022-12-18T11:43:52.639Z,1013.36
2022-12-18T11:44:52.566Z,1013.37
2022-12-18T11:45:52.543Z,1013.36
2022-12-18T11:46:52.579Z,1013.35
2022-12-18T11:47:52.521Z,1013.30
2022-12-18T11:48:52.555Z,1013.25
2022-12-18T11:49:52.530Z,1013.18
2022-12-18T11:50:52.492Z,1013.13
2022-12-18T11:51:52.480Z,1013.12